Time;durP1;ratioP1;P1;durP2;ratioP2;P2;SDS_P1;SDS_P2;PMS_P1;PMS_P2;Temp;Humidity;BMP_temperature;BMP_pressure;BME280_temperature;BME280_humidity;BME280_pressure;Samples;Min_cycle;Max_cycle;Signal;HPM_P1;HPM_P2
2022/07/03 00:01:10;;;;;;;5.38;1.75;;;;;;;16.27;54.47;101034.94;5022237;28;20087;-69
2022/07/03 00:03:35;;;;;;;3.20;1.83;;;;;;;16.23;54.78;101039.47;5022416;28;20121;-69
2022/07/03 00:06:01;;;;;;;3.47;1.50;;;;;;;16.15;55.25;101036.97;5021607;28;20477;-69
2022/07/03 00:08:26;;;;;;;5.07;2.05;;;;;;;16.05;55.92;101031.84;5019584;28;20433;-68
2022/07/03 00:10:51;;;;;;;3.13;1.70;;;;;;;16.04;56.20;101031.00;5023610;28;20069;-69
2022/07/03 00:13:17;;;;;;;3.08;1.83;;;;;;;15.93;57.27;101025.88;5023691;28;20412;-69
2022/07/03 00:15:43;;;;;;;3.20;1.90;;;;;;;15.86;56.51;101023.38;5023063;28;20120;-70
2022/07/03 00:18:09;;;;;;;3.10;1.77;;;;;;;15.70;57.10;101018.34;5021727;28;20034;-68
2022/07/03 00:20:40;;;;;;;3.55;1.73;;;;;;;15.66;57.74;101027.25;5021508;28;20039;-69
2022/07/03 00:23:09;;;;;;;4.28;1.70;;;;;;;15.57;58.41;101027.44;5024363;28;20042;-68
2022/07/03 00:25:38;;;;;;;3.80;1.90;;;;;;;15.52;58.14;101019.53;5025893;28;20029;-68
2022/07/03 00:28:05;;;;;;;3.30;1.90;;;;;;;15.53;58.16;101020.41;5026344;28;20072;-69
2022/07/03 00:30:31;;;;;;;2.95;2.00;;;;;;;15.50;58.50;101020.47;5020958;28;20037;-69
2022/07/03 00:32:57;;;;;;;3.72;2.03;;;;;;;15.44;58.21;101020.59;5022783;28;20492;-69
2022/07/03 00:35:22;;;;;;;4.45;1.95;;;;;;;15.43;57.77;101024.16;5020061;28;20037;-69
2022/07/03 00:37:48;;;;;;;3.45;1.95;;;;;;;15.40;58.38;101019.75;5019665;28;20489;-69
2022/07/03 00:40:14;;;;;;;3.47;1.95;;;;;;;15.37;58.35;101018.94;5022046;28;20041;-69
2022/07/03 00:42:39;;;;;;;3.88;2.05;;;;;;;15.26;58.67;101012.03;5021250;28;20087;-69
2022/07/03 00:45:08;;;;;;;3.42;1.88;;;;;;;15.23;59.36;101019.22;5020817;28;20057;-68
2022/07/03 00:47:36;;;;;;;3.92;2.22;;;;;;;15.17;59.65;101016.63;5023217;28;20091;-70
2022/07/03 00:50:08;;;;;;;7.85;2.20;;;;;;;15.17;59.76;101016.63;5020336;28;20033;-69
2022/07/03 00:52:35;;;;;;;3.60;2.17;;;;;;;15.14;59.43;101006.94;5020579;28;20048;-69
2022/07/03 00:55:06;;;;;;;4.40;2.22;;;;;;;15.15;59.55;101007.84;5022568;28;20038;-69
2022/07/03 00:57:31;;;;;;;3.50;2.08;;;;;;;15.17;59.27;101008.66;5020158;28;20445;-68
2022/07/03 01:00:00;;;;;;;5.10;2.53;;;;;;;15.17;59.83;101006.91;5022244;28;20064;-69
2022/07/03 01:02:34;;;;;;;3.55;2.30;;;;;;;15.12;59.49;101008.75;5021017;28;20070;-69
2022/07/03 01:05:31;;;;;;;3.40;2.47;;;;;;;15.12;60.00;101006.09;5019696;28;20045;-69
2022/07/03 01:08:34;;;;;;;4.45;2.58;;;;;;;15.09;60.61;101004.38;5013908;28;20071;-68
2022/07/03 01:11:07;;;;;;;4.07;2.42;;;;;;;15.04;60.35;101008.03;5021923;28;20048;-67
2022/07/03 01:14:08;;;;;;;4.18;2.42;;;;;;;15.07;60.29;101005.31;5020300;28;20034;-68
2022/07/03 01:16:38;;;;;;;4.15;2.45;;;;;;;15.06;59.95;100995.56;5021780;28;20110;-68
2022/07/03 01:19:34;;;;;;;5.10;2.28;;;;;;;15.06;59.42;100993.81;5019496;28;20116;-68
2022/07/03 01:22:14;;;;;;;3.85;2.50;;;;;;;15.07;58.96;100997.34;5019060;28;20040;-68
2022/07/03 01:25:02;;;;;;;4.05;2.42;;;;;;;15.02;59.73;100993.88;5019762;28;20034;-69
2022/07/03 01:27:49;;;;;;;4.80;2.50;;;;;;;14.94;60.02;100993.13;5022205;28;20063;-69
2022/07/03 01:30:14;;;;;;;4.75;2.28;;;;;;;14.88;60.35;100989.66;5021474;28;20127;-69
2022/07/03 01:32:43;;;;;;;6.18;2.45;;;;;;;14.88;60.71;100994.09;5018911;28;20033;-69
2022/07/03 01:35:11;;;;;;;5.00;2.60;;;;;;;14.79;60.90;100992.47;5020814;28;20081;-69
2022/07/03 01:37:39;;;;;;;4.57;2.88;;;;;;;14.79;61.12;100987.16;5023000;28;20128;-68
2022/07/03 01:40:05;;;;;;;4.93;2.33;;;;;;;14.80;60.64;100980.03;5028506;28;20088;-68
2022/07/03 01:42:33;;;;;;;6.30;2.70;;;;;;;14.81;60.39;100982.69;5023192;28;20485;-69
2022/07/03 01:44:59;;;;;;;5.05;2.72;;;;;;;14.82;60.17;100984.44;5026171;28;20041;-69
2022/07/03 01:47:25;;;;;;;4.00;2.70;;;;;;;14.80;60.72;100988.91;5023595;28;20560;-68
2022/07/03 01:49:53;;;;;;;5.93;2.75;;;;;;;14.74;62.27;100989.00;5025181;28;20038;-67
2022/07/03 01:52:20;;;;;;;3.80;2.35;;;;;;;14.66;62.05;100982.94;5024387;28;20025;-68
2022/07/03 01:54:46;;;;;;;5.07;2.40;;;;;;;14.66;62.01;100980.28;5023397;28;20034;-69
2022/07/03 01:57:12;;;;;;;4.30;2.53;;;;;;;14.66;61.55;100981.16;5026178;28;20034;-69
2022/07/03 01:59:37;;;;;;;4.25;2.65;;;;;;;14.67;60.99;100985.59;5023618;28;20045;-69
2022/07/03 02:02:24;;;;;;;3.65;2.50;;;;;;;14.61;61.89;100976.81;5024971;28;20030;-69
2022/07/03 02:04:59;;;;;;;4.63;2.50;;;;;;;14.55;62.67;100979.56;5023729;28;20034;-69
2022/07/03 02:07:40;;;;;;;4.20;2.72;;;;;;;14.55;61.88;100985.75;5021543;28;20038;-69
2022/07/03 02:10:08;;;;;;;4.45;2.38;;;;;;;14.56;61.62;100976.00;5024194;28;20038;-69
2022/07/03 02:12:39;;;;;;;5.32;2.95;;;;;;;14.58;61.32;100979.53;5023163;28;20440;-69
2022/07/03 02:15:08;;;;;;;7.35;2.60;;;;;;;14.56;61.31;100976.00;5026087;28;20041;-69
2022/07/03 02:17:56;;;;;;;4.28;2.67;;;;;;;14.55;61.87;100982.22;5023512;28;20038;-68
2022/07/03 02:20:24;;;;;;;4.82;2.83;;;;;;;14.51;62.24;100975.16;5023739;28;20444;-69
2022/07/03 02:22:59;;;;;;;4.22;2.85;;;;;;;14.50;62.82;100979.59;5023382;28;20488;-68
2022/07/03 02:25:36;;;;;;;5.97;2.72;;;;;;;14.50;63.15;100976.94;5029395;28;20033;-68
2022/07/03 02:28:06;;;;;;;3.63;2.45;;;;;;;14.51;62.21;100973.38;5024381;28;20120;-68
2022/07/03 02:30:38;;;;;;;4.03;2.88;;;;;;;14.53;62.32;100968.97;5022668;28;20059;-69
2022/07/03 02:33:05;;;;;;;4.93;2.67;;;;;;;14.52;62.07;100975.16;5022490;28;20095;-69
2022/07/03 02:35:32;;;;;;;4.60;2.70;;;;;;;14.56;62.32;100976.00;5024138;28;20124;-69
2022/07/03 02:38:11;;;;;;;7.07;3.25;;;;;;;14.58;62.42;100974.22;5023363;28;20033;-69
2022/07/03 02:40:47;;;;;;;7.22;3.72;;;;;;;14.55;62.51;100979.56;5023332;28;20050;-69
2022/07/03 02:43:30;;;;;;;7.60;3.17;;;;;;;14.53;62.41;100978.72;5022367;28;20045;-70
2022/07/03 02:46:48;;;;;;;5.18;3.08;;;;;;;14.48;62.46;100969.00;5027021;28;20065;-69
2022/07/03 02:48:54;;;;;;;4.70;2.95;;;;;;;14.46;62.50;100965.50;5027281;28;20038;-68
2022/07/03 02:51:22;;;;;;;4.30;3.05;;;;;;;14.47;62.74;100966.38;5021597;28;20065;-68
2022/07/03 02:54:01;;;;;;;5.88;3.17;;;;;;;14.48;62.68;100970.78;5023709;28;20039;-68
2022/07/03 02:56:51;;;;;;;4.22;3.20;;;;;;;14.49;62.65;100964.59;5025303;28;20078;-69
2022/07/03 02:59:46;;;;;;;5.03;3.10;;;;;;;14.51;62.97;100970.72;5025473;28;20039;-68
2022/07/03 03:02:22;;;;;;;4.53;3.22;;;;;;;14.54;63.16;100968.09;5007629;28;20741;-69
2022/07/03 03:05:28;;;;;;;4.63;3.15;;;;;;;14.60;63.14;100970.63;5022525;28;20044;-68
2022/07/03 03:08:23;;;;;;;5.13;3.15;;;;;;;14.60;62.95;100967.97;4998893;28;20081;-69
2022/07/03 03:10:50;;;;;;;5.05;3.20;;;;;;;14.59;62.26;100968.00;5023499;28;20049;-69
2022/07/03 03:13:19;;;;;;;4.85;3.17;;;;;;;14.62;62.48;100965.31;5022027;28;20584;-69
2022/07/03 03:16:07;;;;;;;3.97;2.75;;;;;;;14.66;63.02;100972.31;5025114;28;20040;-69
2022/07/03 03:18:37;;;;;;;3.83;2.85;;;;;;;14.66;62.08;100967.00;5024746;28;20072;-68
2022/07/03 03:21:05;;;;;;;4.40;3.13;;;;;;;14.66;62.21;100972.31;5021557;28;20485;-68
2022/07/03 03:23:41;;;;;;;5.60;2.97;;;;;;;14.70;62.77;100976.69;5022808;28;20037;-69
2022/07/03 03:26:07;;;;;;;4.57;3.15;;;;;;;14.72;62.02;100974.84;5021459;28;20038;-68
2022/07/03 03:28:33;;;;;;;4.32;2.70;;;;;;;14.76;62.30;100970.38;5023855;28;20052;-69
2022/07/03 03:30:58;;;;;;;5.25;3.00;;;;;;;14.79;62.26;100971.19;5022118;28;20037;-68
2022/07/03 03:33:24;;;;;;;5.35;3.08;;;;;;;14.77;62.65;100970.34;5026221;28;20480;-69
2022/07/03 03:35:49;;;;;;;5.07;3.20;;;;;;;14.76;62.70;100965.94;5019246;28;20072;-69
2022/07/03 03:38:15;;;;;;;5.55;3.03;;;;;;;14.78;62.67;100966.81;5023529;28;20033;-69
2022/07/03 03:40:40;;;;;;;6.18;3.05;;;;;;;14.85;62.75;100963.13;5020944;28;20077;-69
2022/07/03 03:43:06;;;;;;;5.97;3.45;;;;;;;14.92;62.46;100963.91;5023452;28;20041;-69
2022/07/03 03:45:31;;;;;;;5.43;3.10;;;;;;;15.00;62.35;100961.13;5026836;28;20033;-68
2022/07/03 03:47:57;;;;;;;4.10;2.65;;;;;;;15.08;62.16;100962.72;5026960;28;20041;-69
2022/07/03 03:50:23;;;;;;;4.70;3.03;;;;;;;15.15;61.80;100971.50;5023107;28;20408;-69
2022/07/03 03:52:48;;;;;;;5.22;2.88;;;;;;;15.24;61.71;100965.13;5027974;28;20112;-69
2022/07/03 03:55:13;;;;;;;4.53;2.95;;;;;;;15.32;61.89;100965.84;5024840;28;20373;-69
2022/07/03 03:57:39;;;;;;;3.97;2.58;;;;;;;15.41;61.84;100964.81;5021819;28;20049;-68
2022/07/03 04:00:06;;;;;;;6.18;2.78;;;;;;;15.51;61.57;100963.69;5023363;28;20044;-69
2022/07/03 04:02:38;;;;;;;4.57;2.90;;;;;;;15.62;61.67;100964.38;5024159;28;20030;-68
2022/07/03 04:05:03;;;;;;;4.68;2.92;;;;;;;15.72;61.43;100962.47;5025624;28;20052;-69
2022/07/03 04:07:29;;;;;;;4.65;3.13;;;;;;;15.82;60.91;100960.47;5019242;28;20136;-69
2022/07/03 04:09:54;;;;;;;5.20;2.83;;;;;;;15.95;60.99;100956.63;5025693;28;20037;-69
2022/07/03 04:12:19;;;;;;;5.97;2.92;;;;;;;16.04;60.98;100953.78;5025837;28;20377;-69
2022/07/03 04:14:45;;;;;;;5.18;2.70;;;;;;;16.13;60.73;100956.22;5024546;28;20042;-68
2022/07/03 04:17:10;;;;;;;3.88;2.80;;;;;;;16.21;60.56;100959.59;5022313;28;20026;-69
2022/07/03 04:19:35;;;;;;;4.63;2.70;;;;;;;16.33;60.29;100953.13;5025762;28;20038;-69
2022/07/03 04:22:01;;;;;;;4.43;2.53;;;;;;;16.42;60.11;100949.34;5023408;28;20032;-69
2022/07/03 04:24:26;;;;;;;5.20;2.60;;;;;;;16.52;59.95;100950.88;5021773;28;20095;-70
2022/07/03 04:26:52;;;;;;;4.13;2.65;;;;;;;16.63;59.83;100942.63;5021012;28;20488;-69
2022/07/03 04:29:17;;;;;;;4.55;2.40;;;;;;;16.74;59.70;100947.69;5022904;28;20127;-69
2022/07/03 04:31:42;;;;;;;3.85;2.45;;;;;;;16.84;59.67;100946.59;5024107;28;20036;-68
2022/07/03 04:34:08;;;;;;;5.55;2.45;;;;;;;16.94;59.33;100947.22;5027238;28;20447;-69
2022/07/03 04:36:33;;;;;;;5.53;2.63;;;;;;;17.03;59.08;100945.22;5022357;28;20469;-69
2022/07/03 04:38:58;;;;;;;4.10;2.60;;;;;;;17.12;59.04;100937.88;5019247;28;20519;-69
2022/07/03 04:41:24;;;;;;;3.70;2.35;;;;;;;17.22;58.93;100942.91;5022429;28;20503;-68
2022/07/03 04:43:49;;;;;;;5.07;2.45;;;;;;;17.31;59.08;100939.13;5020798;28;20101;-69
2022/07/03 04:46:14;;;;;;;2.90;2.08;;;;;;;17.38;59.15;100939.84;5021828;28;20064;-69
2022/07/03 04:48:40;;;;;;;4.68;2.53;;;;;;;17.48;58.86;100944.00;5022151;28;20041;-69
2022/07/03 04:51:05;;;;;;;3.88;2.10;;;;;;;17.60;58.90;100932.09;5026044;28;20045;-69
2022/07/03 04:53:30;;;;;;;4.50;2.35;;;;;;;17.71;58.62;100932.63;5011814;28;20040;-69
2022/07/03 04:55:56;;;;;;;3.70;2.55;;;;;;;17.83;58.74;100923.44;5029222;28;20045;-68
2022/07/03 04:58:21;;;;;;;4.00;2.28;;;;;;;17.94;58.10;100923.97;5027948;28;20044;-69
2022/07/03 05:00:47;;;;;;;3.67;2.33;;;;;;;18.05;58.44;100929.91;5028380;28;20038;-68
2022/07/03 05:03:12;;;;;;;3.83;2.20;;;;;;;18.14;58.74;100926.06;5023855;28;20037;-69
2022/07/03 05:05:38;;;;;;;4.35;2.13;;;;;;;18.25;58.50;100923.91;5025116;28;20038;-69
2022/07/03 05:08:04;;;;;;;4.93;2.20;;;;;;;18.35;58.61;100922.69;5023931;28;20033;-70
2022/07/03 05:10:29;;;;;;;6.57;2.10;;;;;;;18.50;58.69;100918.66;5017742;28;20036;-69
2022/07/03 05:12:54;;;;;;;4.07;2.38;;;;;;;18.62;58.19;100912.88;5023576;28;20034;-68
2022/07/03 05:15:20;;;;;;;4.05;2.08;;;;;;;18.74;57.87;100908.94;5020967;28;20039;-69
2022/07/03 05:17:46;;;;;;;2.80;1.90;;;;;;;18.88;57.94;100921.00;5022163;28;20053;-69
2022/07/03 05:20:24;;;;;;;3.10;1.98;;;;;;;18.98;57.42;100919.75;5021072;28;20434;-69
2022/07/03 05:22:50;;;;;;;4.80;1.92;;;;;;;19.13;57.03;100921.91;5024190;28;20033;-69
2022/07/03 05:25:16;;;;;;;4.30;1.90;;;;;;;19.23;56.73;100909.94;5022837;28;20033;-70
2022/07/03 05:27:41;;;;;;;4.15;1.85;;;;;;;19.34;56.73;100914.03;5021021;28;20042;-69
2022/07/03 05:30:07;;;;;;;4.55;2.10;;;;;;;19.45;56.52;100918.06;5022759;28;20060;-69
2022/07/03 05:32:32;;;;;;;3.42;1.80;;;;;;;19.56;56.11;100914.97;5019121;28;20042;-69
2022/07/03 05:34:57;;;;;;;4.07;2.10;;;;;;;19.69;56.02;100915.44;5024405;28;20643;-69
2022/07/03 05:37:23;;;;;;;3.80;2.03;;;;;;;19.81;55.47;100919.47;5024497;28;20045;-68
2022/07/03 05:39:48;;;;;;;3.00;2.00;;;;;;;19.80;55.55;100915.00;5027602;28;20112;-69
2022/07/03 05:42:13;;;;;;;4.55;2.08;;;;;;;19.85;55.29;100908.53;5025794;28;20029;-68
2022/07/03 05:44:39;;;;;;;3.97;2.13;;;;;;;19.97;54.91;100906.34;5026961;28;20056;-68
2022/07/03 05:47:04;;;;;;;4.40;2.03;;;;;;;20.10;54.71;100913.81;5025213;28;20069;-69
2022/07/03 05:49:29;;;;;;;2.80;1.88;;;;;;;20.22;54.00;100908.91;5027308;28;20117;-69
2022/07/03 05:51:55;;;;;;;5.07;1.98;;;;;;;20.32;53.83;100905.78;5025577;28;20033;-68
2022/07/03 05:54:20;;;;;;;3.67;2.05;;;;;;;20.46;53.14;100902.56;5021776;28;20037;-69
2022/07/03 05:56:45;;;;;;;3.42;1.88;;;;;;;20.56;52.81;100908.44;5020200;28;20474;-69
2022/07/03 05:59:11;;;;;;;3.60;2.10;;;;;;;20.67;52.53;100899.94;5020680;28;20029;-69
2022/07/03 06:01:36;;;;;;;5.10;1.70;;;;;;;20.76;52.47;100896.88;5020621;28;20045;-68
2022/07/03 06:04:01;;;;;;;3.38;2.10;;;;;;;20.83;51.62;100894.78;5019833;28;20045;-69
2022/07/03 06:06:27;;;;;;;3.42;1.98;;;;;;;20.92;51.54;100892.59;5022384;28;20048;-69
2022/07/03 06:08:52;;;;;;;3.75;2.20;;;;;;;20.99;51.57;100883.34;5016053;28;20069;-69
2022/07/03 06:11:17;;;;;;;4.22;1.80;;;;;;;21.12;51.18;100890.84;5021066;28;20125;-68
2022/07/03 06:13:43;;;;;;;3.13;1.60;;;;;;;21.19;50.82;100884.25;5020500;28;20034;-69
2022/07/03 06:16:08;;;;;;;4.47;1.83;;;;;;;21.34;50.85;100883.56;5025712;28;20407;-69
2022/07/03 06:18:33;;;;;;;2.90;1.90;;;;;;;21.43;50.16;100885.88;5022077;28;20567;-68
2022/07/03 06:20:59;;;;;;;3.08;1.52;;;;;;;21.55;50.25;100883.56;5022329;28;20037;-69
2022/07/03 06:23:24;;;;;;;2.55;1.77;;;;;;;21.62;50.25;100890.41;5022286;28;20041;-68
2022/07/03 06:25:49;;;;;;;3.30;1.90;;;;;;;21.72;49.25;100890.81;5025660;28;20068;-69
2022/07/03 06:28:15;;;;;;;3.67;1.60;;;;;;;21.84;49.58;100896.50;5023081;28;20085;-68
2022/07/03 06:30:40;;;;;;;3.28;1.63;;;;;;;21.95;48.50;100885.22;5023486;28;20041;-68
2022/07/03 06:33:05;;;;;;;3.50;1.85;;;;;;;22.02;49.14;100880.44;5031635;28;20025;-68
2022/07/03 06:35:30;;;;;;;3.72;1.60;;;;;;;22.07;48.90;100881.97;5023137;28;20034;-68
2022/07/03 06:38:00;;;;;;;4.28;1.88;;;;;;;22.15;48.51;100878.03;5021400;28;20037;-68
2022/07/03 06:40:26;;;;;;;4.00;1.60;;;;;;;22.24;48.74;100869.53;5022767;28;20112;-69
2022/07/03 06:42:51;;;;;;;4.13;1.70;;;;;;;22.26;47.85;100876.59;5023597;28;20488;-68
2022/07/03 06:45:16;;;;;;;3.95;1.65;;;;;;;22.35;47.51;100880.66;5023606;28;20038;-68
2022/07/03 06:47:42;;;;;;;4.25;2.00;;;;;;;22.47;47.86;100881.84;5023181;28;20056;-69
2022/07/03 06:50:07;;;;;;;2.70;1.73;;;;;;;22.58;47.49;100867.84;5024814;28;20021;-69
2022/07/03 06:52:33;;;;;;;2.95;1.40;;;;;;;22.61;47.41;100873.97;5021211;28;20044;-68
2022/07/03 06:54:58;;;;;;;3.13;1.83;;;;;;;22.68;46.16;100878.06;5025145;28;20124;-69
2022/07/03 06:57:23;;;;;;;3.17;1.77;;;;;;;22.69;46.43;100869.06;5023029;28;20065;-69
2022/07/03 06:59:49;;;;;;;2.53;1.60;;;;;;;22.81;46.68;100869.38;5028441;28;20088;-68
2022/07/03 07:02:14;;;;;;;8.18;2.03;;;;;;;22.92;46.16;100869.69;5027569;28;20033;-68
2022/07/03 07:04:39;;;;;;;3.53;1.77;;;;;;;23.00;46.02;100864.78;5030255;28;20088;-68
2022/07/03 07:07:05;;;;;;;3.15;1.60;;;;;;;23.13;46.08;100868.59;5028707;28;20037;-68
2022/07/03 07:09:30;;;;;;;2.92;1.70;;;;;;;23.23;46.06;100858.19;5028473;28;20042;-69
2022/07/03 07:11:55;;;;;;;2.90;1.70;;;;;;;23.31;45.75;100860.47;5028787;28;20051;-69
2022/07/03 07:14:21;;;;;;;3.08;1.67;;;;;;;23.40;45.29;100854.59;5027448;28;20029;-70
2022/07/03 07:16:46;;;;;;;4.30;2.33;;;;;;;23.50;44.97;100850.44;5027120;28;20041;-69
2022/07/03 07:19:11;;;;;;;4.20;2.13;;;;;;;23.51;45.11;100846.78;5025215;28;20095;-69
2022/07/03 07:21:37;;;;;;;2.55;1.63;;;;;;;23.58;45.03;100848.19;5021680;28;20441;-68
2022/07/03 07:24:02;;;;;;;3.03;1.92;;;;;;;23.69;45.10;100849.44;5024408;28;20511;-69
2022/07/03 07:26:27;;;;;;;3.38;1.73;;;;;;;23.81;45.25;100852.31;5022100;28;20038;-70
2022/07/03 07:28:52;;;;;;;2.55;1.63;;;;;;;23.87;44.20;100847.53;5024803;28;20034;-70
2022/07/03 07:31:18;;;;;;;2.80;1.65;;;;;;;23.92;43.70;100846.34;5025931;28;20034;-69
2022/07/03 07:33:43;;;;;;;2.55;1.70;;;;;;;23.94;43.58;100839.00;5024378;28;20037;-69
2022/07/03 07:36:09;;;;;;;3.22;1.75;;;;;;;23.97;43.79;100838.88;5023334;28;20102;-69
2022/07/03 07:38:34;;;;;;;2.22;1.60;;;;;;;24.05;43.66;100836.59;5020772;28;20038;-69
2022/07/03 07:40:59;;;;;;;4.70;1.92;;;;;;;24.16;43.79;100832.41;5020576;28;20042;-69
2022/07/03 07:43:25;;;;;;;3.13;2.00;;;;;;;24.26;43.41;100829.09;5024257;28;20113;-69
2022/07/03 07:45:52;;;;;;;3.50;1.70;;;;;;;24.36;43.18;100832.09;5024510;28;20033;-69
2022/07/03 07:48:18;;;;;;;3.70;2.08;;;;;;;24.44;42.92;100835.25;5029608;28;20091;-69
2022/07/03 07:50:43;;;;;;;2.92;1.95;;;;;;;24.53;42.85;100833.84;5023122;28;20049;-69
2022/07/03 07:53:09;;;;;;;2.88;1.73;;;;;;;24.56;42.62;100824.69;5020756;28;20072;-69
2022/07/03 07:55:34;;;;;;;4.03;1.90;;;;;;;24.63;42.03;100821.53;5023835;28;20029;-69
2022/07/03 07:57:59;;;;;;;3.70;1.83;;;;;;;24.70;42.50;100822.88;5026493;28;20041;-68
2022/07/03 08:00:24;;;;;;;4.10;2.00;;;;;;;24.68;42.39;100832.03;5022717;28;20088;-70
2022/07/03 08:05:37;;;;;;;3.00;1.60;;;;;;;24.97;41.98;100832.97;5021105;28;20041;-70
2022/07/03 08:08:10;;;;;;;3.03;1.83;;;;;;;25.17;41.28;100836.28;5020210;28;20072;-69
2022/07/03 08:10:40;;;;;;;3.40;2.05;;;;;;;25.25;41.07;100828.56;5020638;28;20042;-70
2022/07/03 08:13:06;;;;;;;3.17;1.73;;;;;;;25.33;41.25;100819.00;5020461;28;20034;-70
2022/07/03 08:15:32;;;;;;;4.40;1.60;;;;;;;25.39;40.65;100817.78;5022577;28;20037;-70
2022/07/03 08:17:57;;;;;;;2.72;1.60;;;;;;;25.44;40.92;100815.66;5027490;28;20112;-70
2022/07/03 08:20:23;;;;;;;2.60;1.73;;;;;;;25.54;40.83;100813.22;5024077;28;20112;-70
2022/07/03 08:22:48;;;;;;;3.17;1.70;;;;;;;25.52;40.22;100817.88;5008096;28;20099;-69
2022/07/03 08:25:14;;;;;;;4.00;1.73;;;;;;;25.54;39.47;100811.41;5025212;28;20030;-70
2022/07/03 08:27:39;;;;;;;2.80;1.70;;;;;;;25.61;40.18;100811.00;5022639;28;20026;-70
2022/07/03 08:30:05;;;;;;;2.63;1.58;;;;;;;25.69;39.63;100814.94;5024022;28;20540;-69
2022/07/03 08:32:30;;;;;;;3.67;1.77;;;;;;;25.86;39.59;100805.75;5023422;28;20029;-70
2022/07/03 08:34:56;;;;;;;4.50;2.90;;;;;;;26.11;39.13;100806.84;5025012;28;20170;-70
2022/07/03 08:37:21;;;;;;;3.22;1.50;;;;;;;26.17;38.34;100795.59;5025131;28;20403;-70
2022/07/03 08:39:46;;;;;;;2.65;1.60;;;;;;;26.22;38.46;100799.72;5026242;28;20515;-69
2022/07/03 08:42:12;;;;;;;4.97;1.80;;;;;;;26.31;38.17;100798.25;5019120;28;20508;-70
2022/07/03 08:44:39;;;;;;;4.47;1.98;;;;;;;26.44;38.42;100792.88;5020139;28;20037;-70
2022/07/03 08:47:10;;;;;;;2.70;1.63;;;;;;;26.42;37.38;100786.69;5024489;28;20040;-69
2022/07/03 08:49:36;;;;;;;4.65;2.50;;;;;;;26.47;37.69;100786.38;5023495;28;20499;-70
2022/07/03 08:52:02;;;;;;;2.85;1.65;;;;;;;26.63;37.25;100790.66;5008965;28;20041;-70
2022/07/03 08:54:27;;;;;;;4.50;1.65;;;;;;;26.77;37.20;100788.81;5023393;28;20038;-70
2022/07/03 08:56:53;;;;;;;2.28;1.48;;;;;;;26.74;36.92;100783.63;5026345;28;20444;-70
2022/07/03 08:59:20;;;;;;;3.95;1.65;;;;;;;26.76;36.76;100770.84;5024295;28;20035;-69
2022/07/03 09:01:46;;;;;;;4.38;1.88;;;;;;;26.57;36.59;100776.69;5026514;28;20057;-70
2022/07/03 09:04:13;;;;;;;3.25;1.40;;;;;;;26.78;37.35;100777.03;5026073;28;20037;-70
2022/07/03 09:06:41;;;;;;;2.80;1.48;;;;;;;27.01;37.24;100775.38;5019506;28;20044;-70
2022/07/03 09:09:08;;;;;;;2.15;1.50;;;;;;;27.21;36.20;100768.59;5019185;28;20485;-71
2022/07/03 09:11:36;;;;;;;3.83;1.65;;;;;;;27.10;35.38;100770.19;5020764;28;20029;-70
2022/07/03 09:14:06;;;;;;;3.17;1.13;;;;;;;27.22;35.93;100765.78;5023645;28;20104;-70
2022/07/03 09:16:31;;;;;;;2.45;1.48;;;;;;;27.44;35.61;100765.06;5024553;28;20034;-70
2022/07/03 09:18:57;;;;;;;2.50;1.30;;;;;;;27.49;34.58;100765.59;5025476;28;20112;-70
2022/07/03 09:21:24;;;;;;;2.10;1.25;;;;;;;27.63;34.81;100769.13;5023034;28;20602;-70
2022/07/03 09:23:49;;;;;;;2.80;1.10;;;;;;;27.87;34.65;100761.91;5021052;28;20503;-70
2022/07/03 09:26:17;;;;;;;2.22;1.30;;;;;;;28.07;34.61;100757.69;5020377;28;20069;-71
2022/07/03 09:28:44;;;;;;;2.70;1.42;;;;;;;28.06;34.28;100752.38;5025936;28;20040;-71
2022/07/03 09:31:11;;;;;;;3.45;1.50;;;;;;;28.06;34.37;100746.94;5021841;28;20045;-71
2022/07/03 09:33:49;;;;;;;2.85;1.35;;;;;;;28.07;34.06;100756.84;5020704;28;20045;-71
2022/07/03 09:36:15;;;;;;;3.60;1.27;;;;;;;28.22;33.77;100746.63;5019409;28;20034;-71
2022/07/03 09:38:45;;;;;;;2.17;1.25;;;;;;;28.35;32.90;100737.44;5017956;28;20045;-71
2022/07/03 09:41:11;;;;;;;2.25;1.48;;;;;;;28.45;33.25;100742.19;5024167;28;20045;-71
2022/07/03 09:43:41;;;;;;;2.75;1.23;;;;;;;28.32;32.54;100748.56;5025613;28;20037;-71
2022/07/03 09:46:07;;;;;;;1.85;1.10;;;;;;;28.29;32.75;100742.47;5022617;28;20037;-70
2022/07/03 09:48:41;;;;;;;1.27;1.00;;;;;;;28.28;31.84;100747.03;5019134;28;20038;-70
2022/07/03 09:51:28;;;;;;;1.95;1.10;;;;;;;28.30;32.18;100744.22;5020001;28;20056;-70
2022/07/03 09:53:55;;;;;;;3.63;1.13;;;;;;;28.44;32.02;100738.59;5020520;28;20026;-71
2022/07/03 09:56:24;;;;;;;4.38;1.20;;;;;;;28.51;31.42;100736.28;5023814;28;20098;-71
2022/07/03 09:59:04;;;;;;;2.90;1.30;;;;;;;28.75;31.02;100738.91;5032341;28;20139;-70
2022/07/03 10:01:29;;;;;;;2.65;1.27;;;;;;;29.07;32.03;100739.09;5033159;28;20039;-70
2022/07/03 10:04:08;;;;;;;2.35;1.27;;;;;;;29.40;30.97;100740.06;5026343;28;20022;-70
2022/07/03 10:06:47;;;;;;;2.33;1.05;;;;;;;29.54;30.94;100734.34;5029515;28;20049;-71
2022/07/03 10:09:14;;;;;;;1.85;1.20;;;;;;;29.62;30.57;100740.00;5032165;28;20415;-70
2022/07/03 10:11:41;;;;;;;2.03;1.10;;;;;;;29.62;31.41;100731.84;5027527;28;20072;-70
2022/07/03 10:14:07;;;;;;;2.33;1.35;;;;;;;29.31;30.90;100733.50;5024352;28;20069;-70
2022/07/03 10:16:33;;;;;;;4.25;1.35;;;;;;;29.10;30.77;100741.56;5023796;28;20568;-69
2022/07/03 10:19:00;;;;;;;3.65;1.40;;;;;;;29.43;32.00;100731.66;5025478;28;20132;-69
2022/07/03 10:21:26;;;;;;;2.22;1.52;;;;;;;29.71;31.38;100730.22;5025678;28;20041;-70
2022/07/03 10:23:51;;;;;;;2.30;1.30;;;;;;;29.64;30.69;100727.19;5021455;28;20049;-70
2022/07/03 10:26:17;;;;;;;1.95;1.13;;;;;;;29.32;31.17;100737.06;5023482;28;20041;-69
2022/07/03 10:28:44;;;;;;;1.38;1.02;;;;;;;29.27;31.18;100732.03;5030253;28;20116;-71
2022/07/03 10:31:09;;;;;;;3.15;1.33;;;;;;;29.32;31.33;100734.34;5030079;28;20112;-71
2022/07/03 10:33:37;;;;;;;1.73;1.00;;;;;;;29.51;31.18;100736.47;5028080;28;20060;-70
2022/07/03 10:36:06;;;;;;;2.85;1.10;;;;;;;29.63;30.96;100719.09;5029123;28;20065;-70
2022/07/03 10:38:42;;;;;;;1.50;1.05;;;;;;;29.71;30.44;100719.34;5023725;28;20504;-70
2022/07/03 10:46:57;;;;;;;2.67;1.30;;;;;;;29.90;31.41;100710.53;5024559;28;20124;-71
2022/07/03 10:49:23;;;;;;;2.80;1.38;;;;;;;29.58;30.95;100716.78;5027656;28;20125;-71
2022/07/03 10:51:52;;;;;;;1.92;1.20;;;;;;;29.28;31.74;100714.72;5024123;28;20595;-71
2022/07/03 10:54:21;;;;;;;3.95;1.10;;;;;;;29.55;30.90;100705.28;5019987;28;20112;-70
2022/07/03 10:56:58;;;;;;;2.05;1.25;;;;;;;29.79;31.35;100697.84;5027445;28;20042;-72
2022/07/03 10:59:50;;;;;;;1.90;1.10;;;;;;;29.96;30.80;100699.13;5022859;28;20040;-71
2022/07/03 11:02:21;;;;;;;2.05;1.13;;;;;;;29.84;30.64;100697.44;5027351;28;20060;-70
2022/07/03 11:05:01;;;;;;;;;;;;;;;29.67;30.27;100694.28;5031368;28;20407;-70
2022/07/03 11:07:28;;;;;;;2.05;1.00;;;;;;;30.03;30.71;100688.59;5022904;28;20571;-70
2022/07/03 11:10:22;;;;;;;1.25;0.90;;;;;;;30.33;30.36;100688.66;5021194;28;20523;-70
2022/07/03 11:12:58;;;;;;;1.50;0.95;;;;;;;30.24;29.76;100681.31;5021574;28;20061;-70
2022/07/03 11:15:30;;;;;;;1.40;1.00;;;;;;;30.00;30.79;100678.81;5019900;28;20038;-70
2022/07/03 11:18:05;;;;;;;6.18;0.90;;;;;;;29.74;31.17;100669.28;5026375;28;20029;-71
2022/07/03 11:20:31;;;;;;;2.33;1.10;;;;;;;29.67;31.03;100672.53;5027148;28;20060;-70
2022/07/03 11:23:10;;;;;;;2.78;1.50;;;;;;;29.85;31.25;100659.22;5022210;28;20036;-70
2022/07/03 11:25:47;;;;;;;2.22;1.10;;;;;;;30.40;30.02;100666.38;5022901;28;20030;-71
2022/07/03 11:28:30;;;;;;;1.85;1.08;;;;;;;30.41;29.42;100668.09;5021290;28;20034;-70
2022/07/03 11:31:11;;;;;;;1.45;0.90;;;;;;;30.46;28.47;100653.06;5022092;28;20051;-70
2022/07/03 11:33:42;;;;;;;1.63;0.88;;;;;;;30.49;28.98;100658.25;5024065;28;20052;-70
2022/07/03 11:36:16;;;;;;;2.35;0.90;;;;;;;30.55;28.09;100651.41;5021499;28;20069;-70
2022/07/03 11:38:47;;;;;;;2.60;0.93;;;;;;;30.66;28.67;100647.72;5020256;28;20037;-69
2022/07/03 11:41:16;;;;;;;1.65;0.98;;;;;;;30.51;29.26;100650.81;5026173;28;20060;-71